Time;durP1;ratioP1;P1;durP2;ratioP2;P2;SDS_P1;SDS_P2;PMS_P1;PMS_P2;Temp;Humidity;BMP_temperature;BMP_pressure;BME280_temperature;BME280_humidity;BME280_pressure;Samples;Min_cycle;Max_cycle;Signal;HPM_P1;HPM_P2
2022/07/12 00:01:10;;;;;;;0.93;0.40;;;;;;;22.78;44.19;102355.81;16138415;19;129910;-64
2022/07/12 00:06:32;;;;;;;0.77;0.50;;;;;;;22.78;44.18;102344.66;16148231;19;130508;-64
2022/07/12 00:11:55;;;;;;;0.52;0.38;;;;;;;22.78;44.28;102341.84;16150713;19;129776;-60
2022/07/12 00:17:16;;;;;;;1.67;0.40;;;;;;;22.79;44.32;102340.75;16149826;19;129300;-65
2022/07/12 00:22:38;;;;;;;0.28;0.22;;;;;;;22.77;44.55;102337.41;16149381;19;130246;-66
2022/07/12 00:28:00;;;;;;;0.63;0.40;;;;;;;22.77;44.20;102334.59;16152338;19;130103;-61
2022/07/12 00:33:22;;;;;;;0.77;0.20;;;;;;;22.77;44.01;102329.84;16150072;19;128908;-63
2022/07/12 00:38:43;;;;;;;0.38;0.25;;;;;;;22.75;44.05;102320.88;16144065;19;129305;-63
2022/07/12 00:44:05;;;;;;;0.75;0.32;;;;;;;22.74;43.96;102310.81;16147501;19;130931;-63
2022/07/12 00:49:27;;;;;;;1.13;0.40;;;;;;;22.72;44.01;102313.84;16148332;19;129794;-63
2022/07/12 00:54:49;;;;;;;0.43;0.38;;;;;;;22.70;44.02;102293.72;16147179;19;129266;-63
2022/07/12 01:00:16;;;;;;;0.30;0.30;;;;;;;22.69;43.73;102307.91;16144344;19;129699;-63
2022/07/12 01:05:38;;;;;;;1.95;0.30;;;;;;;22.67;43.94;102305.34;16225004;19;131289;-63
2022/07/12 01:11:00;;;;;;;1.33;0.40;;;;;;;22.65;44.04;102301.94;16225489;19;129245;-63
2022/07/12 01:16:23;;;;;;;0.45;0.25;;;;;;;22.64;43.90;102297.47;16226133;19;129235;-63
2022/07/12 01:21:47;;;;;;;0.20;0.20;;;;;;;22.64;44.08;102308.63;16228705;19;128690;-62
2022/07/12 01:27:10;;;;;;;0.57;0.30;;;;;;;22.62;43.94;102302.44;16229295;19;129551;-63
2022/07/12 01:32:33;;;;;;;0.47;0.30;;;;;;;22.62;43.92;102301.56;16225351;19;129273;-63
2022/07/12 01:37:55;;;;;;;0.20;0.20;;;;;;;22.60;43.87;102310.19;16227512;19;129466;-62
2022/07/12 01:43:17;;;;;;;0.20;0.20;;;;;;;22.59;43.88;102291.75;16226076;19;129167;-63
2022/07/12 01:48:39;;;;;;;0.20;0.20;;;;;;;22.56;43.79;102283.84;16224817;19;129398;-63
2022/07/12 01:54:01;;;;;;;0.20;0.20;;;;;;;22.54;43.81;102275.75;16228219;19;129164;-63
2022/07/12 01:59:23;;;;;;;0.30;0.20;;;;;;;22.53;44.03;102268.47;16221199;19;129287;-63
2022/07/12 02:04:44;;;;;;;0.35;0.20;;;;;;;22.53;44.10;102287.13;16228266;19;130392;-63
2022/07/12 02:10:07;;;;;;;0.10;0.10;;;;;;;22.53;43.65;102292.69;16144705;19;129266;-63
2022/07/12 02:15:29;;;;;;;0.65;0.22;;;;;;;22.51;44.12;102295.75;16144146;19;129829;-63
2022/07/12 02:20:51;;;;;;;0.30;0.30;;;;;;;22.51;43.57;102294.91;16136241;19;128943;-63
2022/07/12 02:26:12;;;;;;;0.43;0.28;;;;;;;22.49;43.69;102294.28;16139131;19;129057;-63
2022/07/12 02:31:34;;;;;;;0.22;0.10;;;;;;;22.47;43.74;102294.50;16142570;19;129442;-63
2022/07/12 02:36:56;;;;;;;0.30;0.20;;;;;;;22.45;43.82;102293.94;16140208;19;129699;-63
2022/07/12 02:42:18;;;;;;;0.20;0.20;;;;;;;22.46;43.70;102297.53;16141004;19;129019;-63
2022/07/12 02:47:40;;;;;;;0.10;0.10;;;;;;;22.44;43.71;102295.00;16141479;19;129456;-63
2022/07/12 02:53:01;;;;;;;0.20;0.20;;;;;;;22.43;43.71;102287.72;16140531;19;129022;-63
2022/07/12 02:58:23;;;;;;;0.20;0.20;;;;;;;22.42;43.61;102298.03;16135583;19;132224;-63
2022/07/12 03:03:45;;;;;;;0.20;0.20;;;;;;;22.42;43.55;102291.59;16136432;19;129144;-62
2022/07/12 03:09:07;;;;;;;0.13;0.13;;;;;;;22.40;43.83;102302.16;16138336;19;129187;-62
2022/07/12 03:14:28;;;;;;;0.10;0.10;;;;;;;22.39;43.37;102303.22;16140128;19;129491;-63
2022/07/12 03:19:50;;;;;;;0.30;0.10;;;;;;;22.39;43.97;102297.66;16139813;19;129408;-63
2022/07/12 03:25:12;;;;;;;0.10;0.10;;;;;;;22.38;43.60;102293.16;16139432;19;131152;-62
2022/07/12 03:30:34;;;;;;;0.25;0.20;;;;;;;22.35;43.38;102294.50;16136076;19;129310;-63
2022/07/12 03:35:56;;;;;;;0.20;0.20;;;;;;;22.34;43.91;102301.16;16139518;19;129174;-62
2022/07/12 03:41:18;;;;;;;0.30;0.20;;;;;;;22.33;43.69;102310.59;16132136;19;129461;-63
2022/07/12 03:46:39;;;;;;;0.20;0.20;;;;;;;22.34;43.54;102305.91;16137676;19;129414;-63
2022/07/12 03:52:02;;;;;;;0.13;0.13;;;;;;;22.32;43.53;102310.84;16137068;19;129348;-63
2022/07/12 03:57:26;;;;;;;0.45;0.20;;;;;;;22.32;43.54;102313.66;16135579;19;129617;-62
2022/07/12 04:02:47;;;;;;;0.20;0.20;;;;;;;22.30;43.47;102311.06;16132097;19;129889;-58
2022/07/12 04:08:10;;;;;;;0.40;0.10;;;;;;;22.29;43.79;102320.53;16189935;19;128386;-62
2022/07/12 04:13:33;;;;;;;0.45;0.20;;;;;;;22.26;43.65;102324.66;16189318;19;130693;-62
2022/07/12 04:18:54;;;;;;;0.85;0.20;;;;;;;22.26;43.19;102323.81;16135749;19;129113;-63
2022/07/12 04:24:16;;;;;;;0.30;0.30;;;;;;;22.26;43.40;102332.19;16136992;19;129557;-63
2022/07/12 04:29:38;;;;;;;0.20;0.20;;;;;;;22.24;43.62;102332.41;16135487;19;129428;-62
2022/07/12 04:35:00;;;;;;;0.52;0.30;;;;;;;22.26;43.38;102334.97;16136259;19;129069;-63
2022/07/12 04:40:22;;;;;;;0.40;0.40;;;;;;;22.23;43.25;102333.47;16129359;19;128890;-62
2022/07/12 04:45:44;;;;;;;0.50;0.30;;;;;;;22.23;43.34;102338.22;16132455;19;130520;-62
2022/07/12 04:51:05;;;;;;;0.22;0.22;;;;;;;22.23;43.40;102341.00;16147852;19;131142;-62
2022/07/12 04:56:27;;;;;;;0.85;0.40;;;;;;;22.22;43.42;102342.09;16148453;19;129036;-62
2022/07/12 05:01:49;;;;;;;1.95;0.43;;;;;;;22.21;43.09;102351.53;16143683;19;129594;-62
2022/07/12 05:07:11;;;;;;;0.30;0.20;;;;;;;22.21;43.34;102340.38;16147518;19;129757;-62
2022/07/12 05:12:34;;;;;;;0.50;0.28;;;;;;;22.22;43.13;102347.66;16150206;19;129587;-62
2022/07/12 05:17:56;;;;;;;0.55;0.25;;;;;;;22.21;43.33;102345.97;16147716;19;129331;-62
2022/07/12 05:23:18;;;;;;;0.63;0.25;;;;;;;22.23;43.34;102354.94;16148069;19;129162;-62
2022/07/12 05:28:40;;;;;;;9.95;0.60;;;;;;;22.23;43.41;102360.53;16148230;19;129281;-61
2022/07/12 05:34:02;;;;;;;2.13;0.35;;;;;;;22.24;43.38;102362.22;16148221;19;129105;-64
2022/07/12 05:39:24;;;;;;;2.45;0.32;;;;;;;22.24;43.13;102365.84;16143710;19;130308;-64
2022/07/12 05:44:46;;;;;;;3.10;0.50;;;;;;;22.27;43.64;102373.75;16146828;19;129273;-64
2022/07/12 05:50:08;;;;;;;4.25;0.70;;;;;;;22.30;43.63;102377.16;16149699;19;131666;-64
2022/07/12 05:55:29;;;;;;;3.33;0.45;;;;;;;22.31;43.17;102385.28;16148352;19;129620;-64
2022/07/12 06:00:51;;;;;;;7.82;0.60;;;;;;;22.32;43.23;102386.13;16141073;19;130231;-64
2022/07/12 06:06:13;;;;;;;4.38;0.90;;;;;;;22.33;43.66;102387.84;16146687;19;128940;-64
2022/07/12 06:11:35;;;;;;;1.75;0.60;;;;;;;22.33;43.53;102387.84;16145912;19;129345;-64
2022/07/12 06:16:56;;;;;;;1.48;0.50;;;;;;;22.33;43.54;102399.81;16147001;19;129477;-64
2022/07/12 06:22:19;;;;;;;2.75;0.82;;;;;;;22.34;43.36;102390.38;16140698;19;128835;-64
2022/07/12 06:27:40;;;;;;;2.28;0.80;;;;;;;22.33;44.09;102390.63;16147151;19;129145;-62
2022/07/12 06:33:02;;;;;;;5.53;1.08;;;;;;;22.33;43.82;102399.81;16147114;19;130019;-62
2022/07/12 06:38:24;;;;;;;2.05;0.90;;;;;;;22.34;43.58;102406.28;16144214;19;129452;-62
2022/07/12 06:43:46;;;;;;;0.70;0.70;;;;;;;22.34;44.07;102395.97;16146580;19;129457;-62
2022/07/12 06:49:07;;;;;;;2.05;0.80;;;;;;;22.33;43.52;102391.47;16143586;19;129058;-62
2022/07/12 06:54:29;;;;;;;2.38;0.93;;;;;;;22.35;44.07;102392.09;16142746;19;129976;-62
2022/07/12 06:59:51;;;;;;;3.22;0.95;;;;;;;22.36;43.54;102395.72;16139514;19;129545;-62
2022/07/12 07:05:15;;;;;;;2.15;0.57;;;;;;;22.36;43.81;102398.50;16141396;19;129748;-62
2022/07/12 07:10:37;;;;;;;1.67;0.95;;;;;;;22.36;44.01;102395.72;16141581;19;129886;-62
2022/07/12 07:15:58;;;;;;;1.98;0.60;;;;;;;22.37;43.46;102406.66;16144268;19;129971;-62
2022/07/12 07:21:20;;;;;;;0.73;0.50;;;;;;;22.38;43.61;102394.41;16136836;19;129318;-62
2022/07/12 07:26:42;;;;;;;1.88;0.68;;;;;;;22.39;43.69;102398.91;16142011;19;129928;-62
2022/07/12 07:32:04;;;;;;;1.27;0.50;;;;;;;22.40;43.70;102406.16;16140558;19;129980;-62
2022/07/12 07:37:26;;;;;;;1.85;0.70;;;;;;;22.41;43.88;102415.38;16139511;19;130002;-62
2022/07/12 07:42:48;;;;;;;0.88;0.63;;;;;;;22.42;43.68;102414.28;16140495;19;129670;-62
2022/07/12 07:48:10;;;;;;;1.17;0.70;;;;;;;22.43;43.93;102432.72;16140817;19;129035;-62
2022/07/12 07:53:45;;;;;;;0.93;0.50;;;;;;;22.43;43.57;102430.78;16138617;19;130328;-62
2022/07/12 07:59:07;;;;;;;1.85;0.50;;;;;;;22.44;43.69;102426.06;16136121;19;129309;-62
2022/07/12 08:04:29;;;;;;;1.10;0.50;;;;;;;22.43;43.83;102425.19;16138943;19;128890;-62
2022/07/12 08:09:51;;;;;;;0.80;0.70;;;;;;;22.44;43.75;102418.53;16141229;19;130893;-62
2022/07/12 08:15:12;;;;;;;1.25;0.57;;;;;;;22.46;43.60;102409.97;16138640;19;130172;-62
2022/07/12 08:20:34;;;;;;;0.85;0.73;;;;;;;22.47;43.52;102410.78;16135512;19;129577;-62
2022/07/12 08:26:11;;;;;;;0.85;0.47;;;;;;;22.47;43.63;102406.06;16153193;19;129353;-62
2022/07/12 08:31:33;;;;;;;1.05;0.68;;;;;;;22.48;43.92;102404.13;16151749;19;129277;-62
2022/07/12 08:36:55;;;;;;;1.10;0.50;;;;;;;22.48;43.58;102404.13;16151933;19;129535;-62
2022/07/12 08:42:18;;;;;;;1.05;0.65;;;;;;;22.49;43.68;102405.84;16147502;19;129497;-62
2022/07/12 08:47:40;;;;;;;0.50;0.50;;;;;;;22.48;43.68;102406.91;16149758;19;129016;-62
2022/07/12 08:53:02;;;;;;;2.67;0.60;;;;;;;22.49;43.61;102397.47;16150655;19;129570;-62
2022/07/12 08:58:23;;;;;;;1.13;0.75;;;;;;;22.50;43.78;102404.75;16148099;19;131293;-62
2022/07/12 09:03:47;;;;;;;1.20;0.50;;;;;;;22.51;43.64;102406.47;16148651;19;129089;-62
2022/07/12 09:09:09;;;;;;;0.65;0.50;;;;;;;22.50;43.65;102404.75;16150855;19;129433;-62
2022/07/12 09:14:31;;;;;;;0.70;0.65;;;;;;;22.50;43.39;102402.78;16149905;19;129447;-62
2022/07/12 09:19:57;;;;;;;0.52;0.52;;;;;;;22.52;43.51;102411.78;16145009;19;129447;-62
2022/07/12 09:25:18;;;;;;;0.60;0.60;;;;;;;22.52;43.60;102408.16;16147623;19;130174;-62
2022/07/12 09:30:48;;;;;;;0.63;0.63;;;;;;;22.54;43.69;102411.53;16147610;19;129248;-62
2022/07/12 09:36:10;;;;;;;0.73;0.73;;;;;;;22.52;43.69;102406.22;16145547;19;128969;-62
2022/07/12 09:41:33;;;;;;;0.73;0.73;;;;;;;22.53;43.36;102399.53;16143115;19;129067;-62
2022/07/12 09:46:59;;;;;;;0.85;0.75;;;;;;;22.54;43.40;102400.38;16148618;19;129994;-62
2022/07/12 09:52:24;;;;;;;0.80;0.80;;;;;;;22.55;43.36;102402.09;16147222;19;128922;-61
2022/07/12 09:57:46;;;;;;;0.83;0.83;;;;;;;22.55;43.77;102408.53;16141511;19;129422;-62
2022/07/12 10:03:09;;;;;;;0.75;0.75;;;;;;;22.55;43.39;102402.94;16140470;19;129592;-62
2022/07/12 10:08:31;;;;;;;1.17;0.80;;;;;;;22.56;43.63;102406.56;16145968;19;129295;-62
2022/07/12 10:13:54;;;;;;;1.23;0.85;;;;;;;22.57;43.54;102405.50;16145465;19;129152;-61
2022/07/12 10:19:26;;;;;;;1.35;0.90;;;;;;;22.59;43.62;102408.91;16142475;19;129544;-61
2022/07/12 10:24:54;;;;;;;0.80;0.80;;;;;;;22.58;43.46;102407.19;16143746;19;129877;-61
2022/07/12 10:30:21;;;;;;;1.00;0.90;;;;;;;22.59;43.56;102409.75;16144865;19;129543;-61
2022/07/12 10:36:02;;;;;;;0.90;0.90;;;;;;;22.60;43.33;102405.03;16145765;19;129988;-61
2022/07/12 10:41:24;;;;;;;0.65;0.65;;;;;;;22.60;43.79;102413.41;16142266;19;128939;-62
2022/07/12 10:47:00;;;;;;;1.25;0.90;;;;;;;22.63;43.38;102424.09;16143422;19;129306;-62
2022/07/12 10:52:26;;;;;;;0.88;0.73;;;;;;;22.62;43.56;102405.63;16146339;19;129594;-62
2022/07/12 10:57:52;;;;;;;0.77;0.77;;;;;;;22.63;43.43;102393.41;16142181;19;129408;-62
2022/07/12 11:03:15;;;;;;;0.65;0.65;;;;;;;22.63;43.50;102382.25;16136534;19;130684;-62
2022/07/12 11:08:51;;;;;;;0.88;0.73;;;;;;;22.65;43.39;102373.63;16142727;19;129300;-61
2022/07/12 11:14:19;;;;;;;;;;;;;;;22.62;43.51;102372.16;16140328;19;129600;-61
2022/07/12 11:19:41;;;;;;;1.33;0.80;;;;;;;22.65;43.52;102377.25;16138646;19;128827;-62
2022/07/12 11:25:08;;;;;;;3.78;1.00;;;;;;;22.64;43.77;102372.78;16142174;19;128963;-61
2022/07/12 11:30:32;;;;;;;1.30;1.13;;;;;;;22.66;43.74;102367.78;16138986;19;130633;-62
2022/07/12 11:35:55;;;;;;;1.08;1.00;;;;;;;22.66;43.56;102353.84;16139650;19;128920;-62
2022/07/12 11:41:19;;;;;;;1.95;1.30;;;;;;;22.68;43.70;102360.03;16131921;19;130049;-62
2022/07/12 11:46:48;;;;;;;1.25;1.00;;;;;;;22.68;43.56;102360.03;16136981;19;129151;-61
2022/07/12 11:52:14;;;;;;;1.13;1.02;;;;;;;22.70;43.70;102354.25;16138998;19;128956;-62
2022/07/12 11:57:36;;;;;;;1.58;1.10;;;;;;;22.70;43.74;102349.50;16150906;19;129688;-62
2022/07/12 12:02:58;;;;;;;1.75;1.10;;;;;;;22.72;43.93;102361.28;16165068;19;129342;-62
2022/07/12 12:08:21;;;;;;;2.53;1.20;;;;;;;22.74;43.79;102361.88;16167992;19;129253;-61
2022/07/12 12:13:43;;;;;;;1.08;0.85;;;;;;;22.73;43.72;102354.59;16164610;19;130133;-62
2022/07/12 12:19:11;;;;;;;1.63;0.80;;;;;;;22.74;43.88;102345.16;16164944;19;130888;-62
2022/07/12 12:24:33;;;;;;;2.00;0.90;;;;;;;22.74;43.67;102342.34;16168099;19;128870;-61
2022/07/12 12:30:04;;;;;;;1.52;0.98;;;;;;;22.76;43.64;102341.28;16155768;19;129742;-62
2022/07/12 12:35:33;;;;;;;2.38;0.75;;;;;;;22.78;43.90;102333.47;16158491;19;129331;-62
2022/07/12 12:40:56;;;;;;;4.13;0.90;;;;;;;22.76;43.30;102333.75;16162954;19;129723;-62
2022/07/12 12:46:18;;;;;;;1.05;0.80;;;;;;;22.76;43.63;102336.53;16166990;19;128982;-61
2022/07/12 12:51:54;;;;;;;0.98;0.80;;;;;;;22.79;43.91;102335.19;16166172;19;129653;-62
2022/07/12 12:57:15;;;;;;;1.48;0.90;;;;;;;22.79;43.69;102340.75;16155989;19;129580;-62
2022/07/12 13:02:37;;;;;;;4.38;1.17;;;;;;;22.80;43.83;102336.88;16156549;19;129924;-61
2022/07/12 13:07:59;;;;;;;1.90;1.17;;;;;;;22.82;43.68;102337.50;16156641;19;129052;-61
2022/07/12 13:13:21;;;;;;;2.65;1.35;;;;;;;22.84;43.34;102325.00;16142923;19;129266;-61
2022/07/12 13:18:43;;;;;;;2.65;1.95;;;;;;;22.87;43.74;102332.06;16146979;19;129688;-61
2022/07/12 13:24:05;;;;;;;5.05;2.00;;;;;;;22.88;43.74;102333.75;16141256;19;129797;-61
2022/07/12 13:29:29;;;;;;;4.25;1.75;;;;;;;22.91;43.88;102338.03;16145738;19;130688;-61
2022/07/12 13:34:51;;;;;;;3.40;2.00;;;;;;;22.92;43.66;102326.63;16142464;19;129505;-61
2022/07/12 13:40:14;;;;;;;4.40;1.60;;;;;;;22.99;43.90;102318.13;16142783;19;130538;-63
2022/07/12 13:45:36;;;;;;;2.58;1.70;;;;;;;23.10;43.54;102310.84;16143770;19;129343;-63
2022/07/12 13:50:58;;;;;;;7.60;2.15;;;;;;;23.11;43.58;102301.41;16141558;19;134242;-64
2022/07/12 13:56:40;;;;;;;2.80;1.85;;;;;;;23.10;43.79;102297.75;16145762;19;129950;-65
2022/07/12 14:02:03;;;;;;;5.32;1.83;;;;;;;23.10;43.79;102296.91;16138921;19;129537;-64
2022/07/12 14:07:25;;;;;;;6.00;2.00;;;;;;;23.10;43.54;102291.31;16145903;19;129734;-63
2022/07/12 14:12:46;;;;;;;10.05;1.70;;;;;;;23.11;43.38;102282.69;16144517;19;129316;-63
2022/07/12 14:18:08;;;;;;;2.03;1.63;;;;;;;23.13;42.91;102274.09;16145312;19;129409;-67
2022/07/12 14:23:30;;;;;;;3.20;2.08;;;;;;;23.14;43.11;102265.47;16137605;19;130774;-66
2022/07/12 14:28:52;;;;;;;6.30;1.80;;;;;;;23.14;43.12;102264.63;16142832;19;129315;-64
2022/07/12 14:34:13;;;;;;;6.60;1.85;;;;;;;23.15;43.14;102266.28;16144473;19;128987;-64
2022/07/12 14:39:41;;;;;;;3.72;2.05;;;;;;;23.16;43.31;102262.41;16140259;19;130285;-64
2022/07/12 14:45:03;;;;;;;3.25;2.40;;;;;;;23.17;43.40;102262.19;16144431;19;129935;-64
2022/07/12 14:50:25;;;;;;;4.60;1.90;;;;;;;23.18;43.15;102260.22;16144196;19;130514;-64
2022/07/12 14:55:47;;;;;;;3.30;1.77;;;;;;;23.19;43.41;102256.34;16141096;19;129726;-62
2022/07/12 15:01:09;;;;;;;3.03;1.80;;;;;;;23.20;43.38;102246.88;16136890;19;130105;-62
2022/07/12 15:06:31;;;;;;;2.45;1.85;;;;;;;23.22;43.07;102247.47;16137107;19;130524;-62
2022/07/12 15:11:52;;;;;;;4.05;1.90;;;;;;;23.24;43.23;102236.06;16139853;19;129954;-62
2022/07/12 15:17:16;;;;;;;5.03;2.05;;;;;;;23.23;43.02;102235.22;16139628;19;130538;-62
2022/07/12 15:22:38;;;;;;;5.00;1.92;;;;;;;23.25;43.30;102237.75;16135103;19;129869;-62
2022/07/12 15:27:59;;;;;;;4.60;1.88;;;;;;;23.26;42.96;102233.88;16137375;19;129785;-59
2022/07/12 15:33:22;;;;;;;4.53;2.30;;;;;;;23.26;43.21;102228.28;16135360;19;130924;-63
2022/07/12 15:38:44;;;;;;;7.30;1.92;;;;;;;23.25;43.14;102221.88;16135288;19;129381;-63
2022/07/12 15:44:06;;;;;;;3.13;1.98;;;;;;;23.26;43.70;102215.19;16132076;19;129842;-63
2022/07/12 15:49:28;;;;;;;9.43;1.90;;;;;;;23.27;43.22;102218.81;16136930;19;129672;-64
2022/07/12 15:54:49;;;;;;;6.65;2.13;;;;;;;23.28;43.77;102207.41;16137040;19;130495;-63
2022/07/12 16:00:12;;;;;;;6.88;2.30;;;;;;;23.31;43.77;102203.28;16134694;19;129193;-63
2022/07/12 16:05:35;;;;;;;6.47;2.25;;;;;;;23.32;43.78;102205.81;16136316;19;130211;-64
2022/07/12 16:10:57;;;;;;;5.53;2.05;;;;;;;23.33;43.86;102201.06;16133184;19;129066;-64
2022/07/12 16:16:19;;;;;;;8.65;2.10;;;;;;;23.34;43.92;102192.47;16136992;19;129832;-64
2022/07/12 16:21:41;;;;;;;9.50;2.40;;;;;;;23.37;43.60;102190.28;16134027;19;129298;-63
2022/07/12 16:27:03;;;;;;;5.43;2.35;;;;;;;23.39;44.02;102190.84;16131850;19;128936;-64
2022/07/12 16:32:26;;;;;;;6.45;2.15;;;;;;;23.41;43.82;102183.94;16134904;19;130246;-64
2022/07/12 16:37:48;;;;;;;14.77;3.10;;;;;;;23.44;44.24;102190.97;16132622;19;129913;-63
2022/07/12 16:43:10;;;;;;;10.20;3.78;;;;;;;23.47;44.29;102188.50;16132257;19;129350;-64
2022/07/12 16:48:32;;;;;;;14.93;5.30;;;;;;;23.50;44.78;102193.59;16147118;19;130219;-64
2022/07/12 16:53:56;;;;;;;28.00;11.63;;;;;;;23.53;45.39;102188.63;16150113;19;129381;-63
2022/07/12 16:59:19;;;;;;;42.60;20.50;;;;;;;23.57;46.21;102185.09;16145978;19;130896;-64
2022/07/12 17:04:41;;;;;;;62.20;31.00;;;;;;;23.58;46.26;102191.50;16142093;19;129669;-64
2022/07/12 17:10:07;;;;;;;81.57;47.87;;;;;;;23.62;47.12;102182.44;16141033;19;129567;-64
2022/07/12 17:15:28;;;;;;;87.35;45.00;;;;;;;23.65;46.86;102183.88;16146980;19;129302;-64
2022/07/12 17:20:50;;;;;;;85.53;42.95;;;;;;;23.66;47.24;102189.19;16149417;19;129498;-64
2022/07/12 17:26:12;;;;;;;74.78;39.75;;;;;;;23.64;47.38;102185.78;16148507;19;129380;-64
2022/07/12 17:31:34;;;;;;;68.72;37.20;;;;;;;23.61;47.19;102186.31;16146425;19;129532;-64
2022/07/12 17:36:56;;;;;;;63.42;36.33;;;;;;;23.60;47.26;102184.63;16148375;19;130248;-64
2022/07/12 17:42:17;;;;;;;69.45;36.33;;;;;;;23.57;47.30;102178.66;16138135;19;129364;-65
2022/07/12 17:47:39;;;;;;;68.07;35.25;;;;;;;23.55;47.35;102184.47;16142098;19;129633;-65
2022/07/12 17:53:01;;;;;;;69.10;32.58;;;;;;;23.58;47.28;102184.03;16144060;19;129924;-64
2022/07/12 17:58:42;;;;;;;60.47;32.08;;;;;;;23.60;47.20;102178.16;16141167;19;129027;-63
2022/07/12 18:04:04;;;;;;;56.28;30.88;;;;;;;23.62;47.13;102170.38;16140566;19;128786;-64
2022/07/12 18:09:26;;;;;;;53.30;29.63;;;;;;;23.63;47.15;102172.09;16143160;19;129417;-64
2022/07/12 18:14:48;;;;;;;50.42;28.58;;;;;;;23.64;46.60;102163.44;16141298;19;130206;-64
2022/07/12 18:20:15;;;;;;;47.25;27.65;;;;;;;23.66;46.68;102161.25;16142870;19;130893;-64
2022/07/12 18:25:37;;;;;;;44.70;25.00;;;;;;;23.67;46.69;102162.13;16136371;19;129113;-64
2022/07/12 18:30:59;;;;;;;50.90;27.35;;;;;;;23.67;46.82;102162.13;16142584;19;129483;-64
2022/07/12 18:36:20;;;;;;;54.40;25.80;;;;;;;23.65;46.73;102165.16;16139868;19;129396;-64
2022/07/12 18:41:42;;;;;;;54.08;23.90;;;;;;;23.65;47.05;102164.31;16137435;19;129668;-64
2022/07/12 18:47:04;;;;;;;48.90;24.02;;;;;;;23.63;46.61;102172.91;16141743;19;129783;-62
2022/07/12 18:52:26;;;;;;;43.75;23.50;;;;;;;23.59;46.58;102171.75;16142674;19;129482;-64
2022/07/12 18:57:48;;;;;;;43.15;22.27;;;;;;;23.55;46.51;102164.09;16137292;19;129905;-62
2022/07/12 19:03:09;;;;;;;40.25;20.42;;;;;;;23.50;46.77;102162.06;16135044;19;130472;-62
2022/07/12 19:08:31;;;;;;;36.38;20.13;;;;;;;23.49;46.63;102155.59;16137718;19;129966;-61
2022/07/12 19:13:53;;;;;;;36.00;18.85;;;;;;;23.47;46.61;102145.78;16138307;19;129837;-61
2022/07/12 19:19:16;;;;;;;29.38;17.70;;;;;;;23.48;46.56;102141.91;16137767;19;129525;-58
2022/07/12 19:24:38;;;;;;;31.67;16.58;;;;;;;23.47;46.46;102141.03;16136372;19;129735;-59
2022/07/12 19:30:00;;;;;;;27.83;16.08;;;;;;;23.50;46.23;102139.72;16136313;19;129322;-58
2022/07/12 19:35:22;;;;;;;27.15;14.60;;;;;;;23.50;46.33;102134.94;16139049;19;129649;-62
2022/07/12 19:40:44;;;;;;;22.90;14.15;;;;;;;23.50;46.52;102121.00;16138584;19;129896;-60
2022/07/12 19:46:06;;;;;;;24.35;13.60;;;;;;;23.51;46.31;102124.63;16135855;19;129580;-61
2022/07/12 19:51:28;;;;;;;23.95;13.20;;;;;;;23.52;46.58;102129.09;16136607;19;129060;-58
2022/07/12 19:56:51;;;;;;;23.17;12.13;;;;;;;23.55;46.70;102137.00;16135091;19;130176;-58
2022/07/12 20:02:12;;;;;;;25.25;12.95;;;;;;;23.56;47.12;102137.84;16131027;19;130052;-57
2022/07/12 20:07:35;;;;;;;23.05;12.43;;;;;;;23.58;47.47;102142.13;16135956;19;129228;-60
2022/07/12 20:12:57;;;;;;;27.08;12.80;;;;;;;23.61;47.65;102151.94;16133966;19;130616;-60
2022/07/12 20:18:20;;;;;;;20.65;12.18;;;;;;;23.60;47.52;102142.72;16139005;19;129551;-62
2022/07/12 20:23:42;;;;;;;19.48;11.90;;;;;;;23.62;47.37;102140.53;16146569;19;132422;-60
2022/07/12 20:29:04;;;;;;;19.80;11.38;;;;;;;23.61;47.44;102141.63;16146860;19;130857;-61
2022/07/12 20:34:26;;;;;;;18.55;10.88;;;;;;;23.60;47.89;102151.09;16148465;19;129788;-62
2022/07/12 20:39:48;;;;;;;18.17;11.02;;;;;;;23.58;47.57;102152.41;16146842;19;130823;-62
2022/07/12 20:45:10;;;;;;;22.77;10.40;;;;;;;23.55;47.38;102148.16;16144275;19;130394;-62
2022/07/12 20:50:32;;;;;;;16.20;9.90;;;;;;;23.51;47.39;102152.53;16149308;19;129421;-62
2022/07/12 20:55:53;;;;;;;17.45;9.90;;;;;;;23.49;47.11;102152.81;16152265;19;129643;-62
2022/07/12 21:01:16;;;;;;;14.93;9.02;;;;;;;23.46;47.26;102141.28;16138865;19;129792;-62
2022/07/12 21:06:38;;;;;;;15.15;8.30;;;;;;;23.45;47.57;102142.38;16146701;19;129609;-61
2022/07/12 21:12:00;;;;;;;18.73;8.10;;;;;;;23.45;47.16;102137.63;16145260;19;129412;-61
2022/07/12 21:17:22;;;;;;;13.23;7.80;;;;;;;23.46;46.99;102136.53;16144805;19;130104;-60
2022/07/12 21:22:43;;;;;;;11.65;6.78;;;;;;;23.48;47.38;102136.31;16141677;19;129219;-63
2022/07/12 21:28:05;;;;;;;13.40;7.47;;;;;;;23.51;47.10;102141.38;16142408;19;129768;-61
2022/07/12 21:33:28;;;;;;;14.00;6.50;;;;;;;23.52;46.97;102148.66;16142568;19;129614;-64
2022/07/12 21:38:49;;;;;;;11.70;6.40;;;;;;;23.54;46.90;102149.25;16141855;19;130443;-60
2022/07/12 21:44:11;;;;;;;8.60;6.00;;;;;;;23.53;46.82;102144.75;16142356;19;129989;-62
2022/07/12 21:49:33;;;;;;;14.20;6.05;;;;;;;23.54;46.53;102140.88;16146247;19;129555;-63
2022/07/12 21:54:55;;;;;;;8.18;5.80;;;;;;;23.56;46.82;102138.69;16147538;19;130590;-61
2022/07/12 22:00:18;;;;;;;9.20;5.75;;;;;;;23.55;46.40;102131.41;16140274;19;129290;-59
2022/07/12 22:05:40;;;;;;;8.38;5.63;;;;;;;23.55;46.56;102125.81;16138199;19;129542;-64
2022/07/12 22:11:02;;;;;;;6.82;4.80;;;;;;;23.56;46.60;102133.09;16142583;19;129609;-62
2022/07/12 22:16:24;;;;;;;8.25;4.82;;;;;;;23.58;46.57;102127.25;16141438;19;128977;-62
2022/07/12 22:21:45;;;;;;;6.40;4.57;;;;;;;23.55;46.47;102120.22;16141130;19;129927;-62
2022/07/12 22:27:07;;;;;;;6.20;4.50;;;;;;;23.53;46.50;102111.25;16143039;19;130369;-62
2022/07/12 22:32:31;;;;;;;5.40;4.18;;;;;;;23.50;46.24;102109.81;16142068;19;128982;-62
2022/07/12 22:37:53;;;;;;;6.85;4.35;;;;;;;23.50;46.77;102108.97;16142119;19;130896;-62
2022/07/12 22:43:15;;;;;;;7.10;4.07;;;;;;;23.47;46.10;102099.13;16134205;19;130344;-62
2022/07/12 22:48:37;;;;;;;6.20;3.50;;;;;;;23.46;46.46;102094.66;16139672;19;129518;-62
2022/07/12 22:53:58;;;;;;;4.22;3.40;;;;;;;23.45;46.32;102094.91;16137125;19;128936;-62
2022/07/12 22:59:20;;;;;;;4.68;3.55;;;;;;;23.45;46.05;102094.91;16136858;19;129540;-62
2022/07/12 23:04:42;;;;;;;6.35;3.50;;;;;;;23.44;46.11;102096.88;16134654;19;131274;-62
2022/07/12 23:10:04;;;;;;;5.60;2.88;;;;;;;23.44;46.21;102094.06;16139120;19;129859;-62
2022/07/12 23:15:26;;;;;;;5.75;3.35;;;;;;;23.44;46.11;102096.00;16140445;19;129253;-62
2022/07/12 23:20:48;;;;;;;5.20;3.25;;;;;;;23.44;46.00;102096.00;16139344;19;129447;-62
2022/07/12 23:26:10;;;;;;;3.70;2.85;;;;;;;23.42;45.93;102087.03;16134759;19;129571;-62
2022/07/12 23:31:31;;;;;;;3.65;2.53;;;;;;;23.41;45.59;102085.34;16141381;19;130132;-62
2022/07/12 23:36:53;;;;;;;4.07;2.83;;;;;;;23.41;45.97;102085.34;16134183;19;129874;-62
2022/07/12 23:42:15;;;;;;;4.00;2.45;;;;;;;23.40;45.80;102078.06;16136404;19;130931;-62
2022/07/12 23:47:37;;;;;;;3.50;2.50;;;;;;;23.40;45.92;102083.63;16139356;19;130423;-63
2022/07/12 23:52:59;;;;;;;2.75;2.40;;;;;;;23.39;45.74;102076.34;16138467;19;131116;-63
2022/07/12 23:58:21;;;;;;;2.70;2.10;;;;;;;23.39;45.89;102059.59;16137680;19;129340;-61
